Time;durP1;ratioP1;P1;durP2;ratioP2;P2;SDS_P1;SDS_P2;PMS_P1;PMS_P2;Temp;Humidity;BMP_temperature;BMP_pressure;BME280_temperature;BME280_humidity;BME280_pressure;Samples;Min_cycle;Max_cycle;Signal;HPM_P1;HPM_P2
2023/05/01 00:00:49;;;;;;;2.78;2.42;;;;;;;;;;5019965;28;20040;-75
2023/05/01 00:03:16;;;;;;;2.65;1.92;;;;;;;;;;5030378;28;20025;-75
2023/05/01 00:05:43;;;;;;;3.10;2.25;;;;;;;;;;5048660;28;20030;-74
2023/05/01 00:08:10;;;;;;;3.00;2.03;;;;;;;;;;5034003;28;20028;-75
2023/05/01 00:10:36;;;;;;;2.42;1.80;;;;;;;;;;5033304;28;20093;-75
2023/05/01 00:13:02;;;;;;;2.20;2.00;;;;;;;;;;5038300;28;20021;-75
2023/05/01 00:15:28;;;;;;;3.70;1.80;;;;;;;;;;5030675;28;20045;-77
2023/05/01 00:17:55;;;;;;;2.00;1.75;;;;;;;;;;5024094;28;20030;-76
2023/05/01 00:20:22;;;;;;;2.10;1.83;;;;;;;;;;5033701;28;20095;-74
2023/05/01 00:22:48;;;;;;;2.60;1.75;;;;;;;;;;5052549;28;20021;-74
2023/05/01 00:25:15;;;;;;;2.03;1.65;;;;;;;;;;5033747;28;20035;-75
2023/05/01 00:27:43;;;;;;;2.67;1.80;;;;;;;;;;5048300;28;20441;-75
2023/05/01 00:30:09;;;;;;;2.58;1.90;;;;;;;;;;5047911;28;20583;-75
2023/05/01 00:33:02;;;;;;;2.22;1.80;;;;;;;;;;5098164;27;20395;-78
2023/05/01 00:35:29;;;;;;;2.00;1.80;;;;;;;;;;5094622;28;20035;-76
2023/05/01 00:37:55;;;;;;;1.80;1.70;;;;;;;;;;5102695;28;20024;-76
2023/05/01 00:40:22;;;;;;;2.70;1.90;;;;;;;;;;5102675;28;20027;-76
2023/05/01 00:42:48;;;;;;;2.00;1.77;;;;;;;;;;5102735;28;20036;-76
2023/05/01 00:45:14;;;;;;;4.07;2.30;;;;;;;;;;5095253;28;20040;-76
2023/05/01 00:47:41;;;;;;;25.98;2.58;;;;;;;;;;5098833;28;20016;-77
2023/05/01 00:50:07;;;;;;;1.80;1.70;;;;;;;;;;5106931;28;20028;-75
2023/05/01 00:52:33;;;;;;;2.38;1.83;;;;;;;;;;5115712;28;20036;-76
2023/05/01 00:55:00;;;;;;;2.38;1.80;;;;;;;;;;5106581;28;20031;-76
2023/05/01 00:57:26;;;;;;;4.85;2.08;;;;;;;;;;5101508;28;20074;-76
2023/05/01 00:59:52;;;;;;;2.05;1.80;;;;;;;;;;5093828;28;20063;-76
2023/05/01 01:02:18;;;;;;;3.13;1.90;;;;;;;;;;5101067;28;20031;-76
2023/05/01 01:04:46;;;;;;;2.15;1.92;;;;;;;;;;5110765;28;20036;-77
2023/05/01 01:07:20;;;;;;;2.28;2.08;;;;;;;;;;5094611;28;20096;-77
2023/05/01 01:10:05;;;;;;;5.20;2.30;;;;;;;;;;5096210;28;20032;-78
2023/05/01 01:12:34;;;;;;;4.32;2.28;;;;;;;;;;5113965;28;20020;-78
2023/05/01 01:15:00;;;;;;;2.53;2.13;;;;;;;;;;5097409;28;20016;-79
2023/05/01 01:17:31;;;;;;;4.13;2.50;;;;;;;;;;5109903;28;20111;-77
2023/05/01 01:20:10;;;;;;;5.60;3.22;;;;;;;;;;5115745;28;20024;-75
2023/05/01 01:22:39;;;;;;;3.75;2.60;;;;;;;;;;5103209;28;20047;-79
2023/05/01 01:25:08;;;;;;;4.45;3.33;;;;;;;;;;5103741;28;20036;-77
2023/05/01 01:27:47;;;;;;;3.63;2.65;;;;;;;;;;5096409;28;20032;-76
2023/05/01 01:30:31;;;;;;;5.03;3.40;;;;;;;;;;5102265;28;20509;-76
2023/05/01 01:33:03;;;;;;;4.75;2.90;;;;;;;;;;5102678;28;20105;-76
2023/05/01 01:35:30;;;;;;;5.47;2.90;;;;;;;;;;5119778;28;20036;-75
2023/05/01 01:38:05;;;;;;;8.38;3.03;;;;;;;;;;5106139;28;20441;-77
2023/05/01 01:40:34;;;;;;;8.32;3.53;;;;;;;;;;5105345;28;20068;-77
2023/05/01 01:43:08;;;;;;;3.28;2.78;;;;;;;;;;5085971;28;20551;-76
2023/05/01 01:45:41;;;;;;;8.20;4.00;;;;;;;;;;5089625;28;20689;-75
2023/05/01 01:48:10;;;;;;;5.22;3.22;;;;;;;;;;5083882;28;20499;-75
2023/05/01 01:50:37;;;;;;;6.20;3.15;;;;;;;;;;5093178;28;20028;-78
2023/05/01 01:53:05;;;;;;;4.70;3.17;;;;;;;;;;5097830;28;20028;-76
2023/05/01 01:55:32;;;;;;;4.80;3.00;;;;;;;;;;5087794;28;20028;-76
2023/05/01 01:57:59;;;;;;;5.75;3.55;;;;;;;;;;5100642;28;20142;-76
2023/05/01 02:00:27;;;;;;;4.38;2.70;;;;;;;;;;5086589;28;20060;-75
2023/05/01 02:02:54;;;;;;;3.25;2.75;;;;;;;;;;5065321;28;20130;-76
2023/05/01 02:05:21;;;;;;;5.53;3.00;;;;;;;;;;5086232;28;20346;-78
2023/05/01 02:07:48;;;;;;;6.93;3.10;;;;;;;;;;5086729;28;20670;-75
2023/05/01 02:10:15;;;;;;;4.40;3.40;;;;;;;;;;5101484;28;20120;-75
2023/05/01 02:12:45;;;;;;;4.82;3.22;;;;;;;;;;5090335;28;20085;-76
2023/05/01 02:15:13;;;;;;;6.03;2.88;;;;;;;;;;5091959;28;20012;-77
2023/05/01 02:17:40;;;;;;;4.93;3.30;;;;;;;;;;5089677;28;20024;-76
2023/05/01 02:20:08;;;;;;;3.22;2.53;;;;;;;;;;5095238;27;20118;-76
2023/05/01 02:22:35;;;;;;;4.05;2.75;;;;;;;;;;5080035;28;20058;-77
2023/05/01 02:25:02;;;;;;;5.25;3.03;;;;;;;;;;5103087;28;20082;-76
2023/05/01 02:27:34;;;;;;;4.22;3.03;;;;;;;;;;5082123;28;20123;-76
2023/05/01 02:30:00;;;;;;;5.03;2.95;;;;;;;;;;5091333;28;20504;-75
2023/05/01 02:32:27;;;;;;;5.22;3.83;;;;;;;;;;5100749;28;20051;-78
2023/05/01 02:34:54;;;;;;;7.85;3.58;;;;;;;;;;5095272;28;20036;-75
2023/05/01 02:37:20;;;;;;;6.28;2.97;;;;;;;;;;5090331;28;20080;-73
2023/05/01 02:39:46;;;;;;;4.88;3.03;;;;;;;;;;5086554;28;20039;-76
2023/05/01 02:42:13;;;;;;;8.07;3.30;;;;;;;;;;5089170;28;20033;-76
2023/05/01 02:44:45;;;;;;;4.00;3.10;;;;;;;;;;5087510;28;20041;-76
2023/05/01 02:47:15;;;;;;;7.75;3.00;;;;;;;;;;5104713;28;20492;-77
2023/05/01 02:49:42;;;;;;;7.75;3.20;;;;;;;;;;5086764;28;20157;-76
2023/05/01 02:52:09;;;;;;;4.40;3.15;;;;;;;;;;5087469;28;20380;-76
2023/05/01 02:54:36;;;;;;;4.07;2.90;;;;;;;;;;5082418;28;20112;-76
2023/05/01 02:57:04;;;;;;;7.32;3.13;;;;;;;;;;5081337;28;20038;-76
2023/05/01 02:59:31;;;;;;;4.15;2.85;;;;;;;;;;5083430;28;20032;-78
2023/05/01 03:01:57;;;;;;;5.35;2.95;;;;;;;;;;5086960;28;20035;-77
2023/05/01 03:04:23;;;;;;;4.65;3.38;;;;;;;;;;5077141;28;20029;-76
2023/05/01 03:06:49;;;;;;;5.75;3.08;;;;;;;;;;5087387;28;20360;-75
2023/05/01 03:09:16;;;;;;;6.78;3.53;;;;;;;;;;5091394;28;20037;-76
2023/05/01 03:11:42;;;;;;;6.03;3.25;;;;;;;;;;5090495;28;20130;-76
2023/05/01 03:14:10;;;;;;;7.05;3.38;;;;;;;;;;5091541;28;20460;-76
2023/05/01 03:16:36;;;;;;;3.90;3.08;;;;;;;;;;5087839;28;20020;-76
2023/05/01 03:19:02;;;;;;;4.80;2.97;;;;;;;;;;5093415;28;20059;-76
2023/05/01 03:21:28;;;;;;;6.07;3.47;;;;;;;;;;5079558;28;20081;-76
2023/05/01 03:23:54;;;;;;;5.57;3.10;;;;;;;;;;5072336;28;20103;-76
2023/05/01 03:26:20;;;;;;;4.68;3.30;;;;;;;;;;5077745;28;20051;-79
2023/05/01 03:28:47;;;;;;;6.57;3.05;;;;;;;;;;5086124;28;20035;-76
2023/05/01 03:31:13;;;;;;;5.80;3.08;;;;;;;;;;5085420;28;20536;-75
2023/05/01 03:33:39;;;;;;;4.28;3.20;;;;;;;;;;5090278;28;20027;-76
2023/05/01 03:36:06;;;;;;;6.18;3.60;;;;;;;;;;5096448;28;20061;-77
2023/05/01 03:38:32;;;;;;;9.20;3.50;;;;;;;;;;5087108;28;20028;-75
2023/05/01 03:40:58;;;;;;;7.53;3.50;;;;;;;;;;5086912;28;20035;-76
2023/05/01 03:43:25;;;;;;;8.38;4.00;;;;;;;;;;5084386;28;20069;-76
2023/05/01 03:45:51;;;;;;;7.47;3.20;;;;;;;;;;5085718;28;20043;-75
2023/05/01 03:48:18;;;;;;;5.03;3.20;;;;;;;;;;5084244;28;20056;-76
2023/05/01 03:50:45;;;;;;;6.97;3.78;;;;;;;;;;5093762;28;20095;-76
2023/05/01 03:53:12;;;;;;;4.40;3.10;;;;;;;;;;5085015;28;20035;-76
2023/05/01 03:55:39;;;;;;;5.15;3.00;;;;;;;;;;5088773;28;20030;-75
2023/05/01 03:58:05;;;;;;;7.70;3.97;;;;;;;;;;5089083;28;20016;-77
2023/05/01 04:00:32;;;;;;;4.35;3.63;;;;;;;;;;5093303;28;20024;-76
2023/05/01 04:02:58;;;;;;;4.18;2.75;;;;;;;;;;5090002;28;20098;-76
2023/05/01 04:05:24;;;;;;;3.58;2.97;;;;;;;;;;5083059;28;20511;-75
2023/05/01 04:07:51;;;;;;;3.72;3.10;;;;;;;;;;5098453;28;20024;-76
2023/05/01 04:10:17;;;;;;;4.72;3.20;;;;;;;;;;5082133;28;20461;-75
2023/05/01 04:12:43;;;;;;;5.93;3.92;;;;;;;;;;5072594;28;20033;-76
2023/05/01 04:15:10;;;;;;;3.75;2.78;;;;;;;;;;5075595;28;20104;-77
2023/05/01 04:17:37;;;;;;;7.30;2.90;;;;;;;;;;5081283;28;20387;-76
2023/05/01 04:20:05;;;;;;;4.55;3.10;;;;;;;;;;5078733;28;20034;-76
2023/05/01 04:22:31;;;;;;;5.75;2.95;;;;;;;;;;5071203;28;20032;-76
2023/05/01 04:24:58;;;;;;;3.90;2.47;;;;;;;;;;5083305;28;20031;-76
2023/05/01 04:27:24;;;;;;;4.05;2.55;;;;;;;;;;5084846;28;20021;-76
2023/05/01 04:29:51;;;;;;;3.38;2.53;;;;;;;;;;5074968;28;20024;-78
2023/05/01 04:32:17;;;;;;;4.13;2.40;;;;;;;;;;5104682;28;20506;-76
2023/05/01 04:34:43;;;;;;;5.85;2.70;;;;;;;;;;5082729;28;20044;-76
2023/05/01 04:37:09;;;;;;;5.15;3.00;;;;;;;;;;5093759;28;20399;-77
2023/05/01 04:39:36;;;;;;;7.72;2.65;;;;;;;;;;5087148;28;20081;-76
2023/05/01 04:42:03;;;;;;;3.17;2.42;;;;;;;;;;5084439;28;20097;-78
2023/05/01 04:44:29;;;;;;;2.92;2.63;;;;;;;;;;5079100;28;20021;-76
2023/05/01 04:46:55;;;;;;;4.10;2.47;;;;;;;;;;5085980;28;20039;-76
2023/05/01 04:49:22;;;;;;;3.50;2.40;;;;;;;;;;5093374;28;20027;-76
2023/05/01 04:51:48;;;;;;;4.07;2.58;;;;;;;;;;5090711;28;20025;-75
2023/05/01 04:54:14;;;;;;;3.40;2.85;;;;;;;;;;5086646;28;20072;-76
2023/05/01 04:56:40;;;;;;;9.50;2.67;;;;;;;;;;5093563;28;20009;-75
2023/05/01 04:59:06;;;;;;;3.78;2.40;;;;;;;;;;5087749;28;20020;-77
2023/05/01 05:01:32;;;;;;;5.53;2.90;;;;;;;;;;5093810;28;20028;-77
2023/05/01 05:03:58;;;;;;;3.70;2.92;;;;;;;;;;5088973;28;20052;-77
2023/05/01 05:06:25;;;;;;;3.78;2.55;;;;;;;;;;5084314;28;20378;-76
2023/05/01 05:08:51;;;;;;;3.50;2.60;;;;;;;;;;5092723;28;20017;-77
2023/05/01 05:11:20;;;;;;;4.25;3.33;;;;;;;;;;5080727;28;20020;-75
2023/05/01 05:13:46;;;;;;;5.03;2.72;;;;;;;;;;5086812;28;20028;-76
2023/05/01 05:16:13;;;;;;;5.05;2.30;;;;;;;;;;5087836;28;20035;-76
2023/05/01 05:18:39;;;;;;;4.60;2.55;;;;;;;;;;5096754;28;20111;-76
2023/05/01 05:21:06;;;;;;;3.38;2.20;;;;;;;;;;5077135;28;20040;-76
2023/05/01 05:23:33;;;;;;;5.00;3.05;;;;;;;;;;5106530;28;20063;-77
2023/05/01 05:26:00;;;;;;;4.32;2.50;;;;;;;;;;5089456;28;20031;-76
2023/05/01 05:28:27;;;;;;;3.30;2.40;;;;;;;;;;5089136;28;20524;-77
2023/05/01 05:30:53;;;;;;;4.07;2.30;;;;;;;;;;5087893;28;20860;-77
2023/05/01 05:33:19;;;;;;;2.50;2.28;;;;;;;;;;5094148;28;20028;-77
2023/05/01 05:35:45;;;;;;;3.92;2.22;;;;;;;;;;5083826;28;20110;-76
2023/05/01 05:38:12;;;;;;;2.72;2.22;;;;;;;;;;5088554;28;20123;-76
2023/05/01 05:40:38;;;;;;;4.72;2.28;;;;;;;;;;5085946;28;20024;-75
2023/05/01 05:43:04;;;;;;;3.50;2.30;;;;;;;;;;5085619;28;20115;-76
2023/05/01 05:45:33;;;;;;;2.60;2.10;;;;;;;;;;5099671;28;20123;-76
2023/05/01 05:47:59;;;;;;;2.92;2.10;;;;;;;;;;5087953;28;20419;-76
2023/05/01 05:50:25;;;;;;;2.10;1.90;;;;;;;;;;5086282;28;20024;-77
2023/05/01 05:52:51;;;;;;;5.40;2.00;;;;;;;;;;5089075;28;20488;-78
2023/05/01 05:55:17;;;;;;;2.75;2.20;;;;;;;;;;5098644;28;20035;-76
2023/05/01 05:57:44;;;;;;;2.00;1.80;;;;;;;;;;5091616;28;20028;-77
2023/05/01 06:00:10;;;;;;;2.38;1.92;;;;;;;;;;5085880;28;20024;-78
2023/05/01 06:02:36;;;;;;;2.45;2.03;;;;;;;;;;5080320;28;20310;-76
2023/05/01 06:05:03;;;;;;;2.63;1.67;;;;;;;;;;5103772;28;20105;-76
2023/05/01 06:07:29;;;;;;;3.10;2.17;;;;;;;;;;5095825;28;20020;-77
2023/05/01 06:10:01;;;;;;;2.17;1.90;;;;;;;;;;5087815;28;20088;-77
2023/05/01 06:12:28;;;;;;;2.00;1.90;;;;;;;;;;5080674;28;20025;-77
2023/05/01 06:14:54;;;;;;;2.78;1.88;;;;;;;;;;5093942;28;20203;-76
2023/05/01 06:17:20;;;;;;;2.83;1.92;;;;;;;;;;5089777;28;20057;-76
2023/05/01 06:19:47;;;;;;;5.30;1.98;;;;;;;;;;5087385;28;21605;-76
2023/05/01 06:22:13;;;;;;;1.70;1.60;;;;;;;;;;5097567;28;20085;-77
2023/05/01 06:24:39;;;;;;;1.75;1.65;;;;;;;;;;5098684;28;20027;-77
2023/05/01 06:27:05;;;;;;;2.40;1.70;;;;;;;;;;5091609;28;20098;-77
2023/05/01 06:29:31;;;;;;;1.83;1.73;;;;;;;;;;5107546;28;20131;-81
2023/05/01 06:31:59;;;;;;;2.40;1.95;;;;;;;;;;5082289;28;20044;-76
2023/05/01 06:34:25;;;;;;;2.30;1.60;;;;;;;;;;5102333;28;20652;-77
2023/05/01 06:36:51;;;;;;;2.03;1.63;;;;;;;;;;5104225;28;20074;-77
2023/05/01 06:39:17;;;;;;;1.70;1.60;;;;;;;;;;5080597;28;20122;-77
2023/05/01 06:41:46;;;;;;;2.58;2.35;;;;;;;;;;5096916;28;20024;-76
2023/05/01 06:44:12;;;;;;;3.28;1.70;;;;;;;;;;5089128;28;20089;-78
2023/05/01 06:46:38;;;;;;;1.73;1.63;;;;;;;;;;5086823;28;20035;-76
2023/05/01 06:49:05;;;;;;;2.70;1.90;;;;;;;;;;5085470;28;20032;-77
2023/05/01 06:51:31;;;;;;;2.53;1.77;;;;;;;;;;5077447;28;20036;-76
2023/05/01 06:53:57;;;;;;;2.17;1.50;;;;;;;;;;5077350;28;20057;-77
2023/05/01 06:56:24;;;;;;;1.67;1.58;;;;;;;;;;5075830;28;20385;-77
2023/05/01 06:58:50;;;;;;;1.83;1.70;;;;;;;;;;5078418;28;20028;-77
2023/05/01 07:01:17;;;;;;;2.22;1.60;;;;;;;;;;5079088;28;20027;-78
2023/05/01 07:03:43;;;;;;;1.75;1.65;;;;;;;;;;5098498;28;20473;-76
2023/05/01 07:06:10;;;;;;;2.25;1.75;;;;;;;;;;5086159;28;20036;-77
2023/05/01 07:08:36;;;;;;;4.03;1.67;;;;;;;;;;5081691;28;20512;-77
2023/05/01 07:11:02;;;;;;;2.45;1.70;;;;;;;;;;5081505;28;20038;-78
2023/05/01 07:13:28;;;;;;;1.85;1.52;;;;;;;;;;5086187;28;20061;-77
2023/05/01 07:15:54;;;;;;;1.55;1.45;;;;;;;;;;5079785;28;20052;-77
2023/05/01 07:18:20;;;;;;;2.03;1.88;;;;;;;;;;5080038;28;20035;-78
2023/05/01 07:20:48;;;;;;;3.33;1.70;;;;;;;;;;5094844;28;20047;-77
2023/05/01 07:23:15;;;;;;;1.75;1.55;;;;;;;;;;5082837;28;20103;-78
2023/05/01 07:25:41;;;;;;;4.53;1.65;;;;;;;;;;5079552;28;20059;-78
2023/05/01 07:28:07;;;;;;;1.95;1.80;;;;;;;;;;5084304;28;20056;-76
2023/05/01 07:30:35;;;;;;;2.03;1.92;;;;;;;;;;5082896;28;20036;-77
2023/05/01 07:33:01;;;;;;;1.50;1.40;;;;;;;;;;5085257;28;20087;-77
2023/05/01 07:35:27;;;;;;;2.17;2.05;;;;;;;;;;5087477;28;20095;-79
2023/05/01 07:37:53;;;;;;;2.63;1.75;;;;;;;;;;5082689;28;20028;-77
2023/05/01 07:40:20;;;;;;;1.70;1.60;;;;;;;;;;5083912;28;20107;-76
2023/05/01 07:42:46;;;;;;;4.68;1.63;;;;;;;;;;5094341;28;20028;-77
2023/05/01 07:45:12;;;;;;;1.75;1.50;;;;;;;;;;5078968;28;20511;-77
2023/05/01 07:47:38;;;;;;;2.15;1.60;;;;;;;;;;5087077;28;20522;-77
2023/05/01 07:50:05;;;;;;;2.08;1.55;;;;;;;;;;5081386;28;20137;-77
2023/05/01 07:52:31;;;;;;;2.50;1.58;;;;;;;;;;5074776;28;20066;-77
2023/05/01 07:54:57;;;;;;;1.88;1.70;;;;;;;;;;5078490;28;20369;-77
2023/05/01 07:57:23;;;;;;;3.90;1.50;;;;;;;;;;5081803;28;20039;-76
2023/05/01 07:59:54;;;;;;;3.90;2.10;;;;;;;;;;5086383;28;20417;-76
2023/05/01 08:02:20;;;;;;;1.60;1.50;;;;;;;;;;5078744;28;20032;-77
2023/05/01 08:04:48;;;;;;;2.03;1.70;;;;;;;;;;5089679;28;20412;-76
2023/05/01 08:07:15;;;;;;;5.30;1.70;;;;;;;;;;5084951;28;20032;-77
2023/05/01 08:09:41;;;;;;;1.92;1.77;;;;;;;;;;5085050;28;20024;-76
2023/05/01 08:12:07;;;;;;;2.17;1.65;;;;;;;;;;5087135;28;20135;-75
2023/05/01 08:14:33;;;;;;;2.58;1.75;;;;;;;;;;5086645;28;20073;-76
2023/05/01 08:16:59;;;;;;;2.13;1.50;;;;;;;;;;5087128;28;20477;-76
2023/05/01 08:19:26;;;;;;;1.65;1.55;;;;;;;;;;5075622;28;20086;-76
2023/05/01 08:21:53;;;;;;;2.90;1.92;;;;;;;;;;5095263;28;20028;-78
2023/05/01 08:24:19;;;;;;;2.72;1.67;;;;;;;;;;5079590;28;20047;-77
2023/05/01 08:26:46;;;;;;;4.07;1.65;;;;;;;;;;5078077;28;20028;-76
2023/05/01 08:29:12;;;;;;;3.08;1.60;;;;;;;;;;5070931;28;20031;-76
2023/05/01 08:31:38;;;;;;;2.35;1.73;;;;;;;;;;5089068;28;20404;-77
2023/05/01 08:34:05;;;;;;;2.38;1.70;;;;;;;;;;5087271;28;20023;-75
2023/05/01 08:36:31;;;;;;;4.25;1.85;;;;;;;;;;5089058;28;20381;-77
2023/05/01 08:38:57;;;;;;;4.18;1.70;;;;;;;;;;5082437;28;20062;-76
2023/05/01 08:41:25;;;;;;;1.58;1.48;;;;;;;;;;5106165;28;20489;-77
2023/05/01 08:43:51;;;;;;;1.92;1.67;;;;;;;;;;5097552;28;20201;-77
2023/05/01 08:46:25;;;;;;;2.15;1.58;;;;;;;;;;5088091;28;20115;-77
2023/05/01 08:48:52;;;;;;;2.05;1.60;;;;;;;;;;5089959;28;20432;-76
2023/05/01 08:51:21;;;;;;;3.92;2.33;;;;;;;;;;5083135;28;20054;-76
2023/05/01 08:53:49;;;;;;;2.55;1.70;;;;;;;;;;5086420;28;20057;-76
2023/05/01 08:56:16;;;;;;;2.03;1.80;;;;;;;;;;5085881;28;20078;-76
2023/05/01 08:58:44;;;;;;;1.67;1.58;;;;;;;;;;5102955;27;20446;-77
2023/05/01 09:01:13;;;;;;;5.38;1.88;;;;;;;;;;5084680;28;20040;-76
2023/05/01 09:03:39;;;;;;;2.33;1.67;;;;;;;;;;5085832;28;20086;-76
2023/05/01 09:06:06;;;;;;;2.00;1.70;;;;;;;;;;5086970;28;20020;-77
2023/05/01 09:08:33;;;;;;;4.47;2.13;;;;;;;;;;5090057;28;20024;-77
2023/05/01 09:10:59;;;;;;;2.53;1.77;;;;;;;;;;5085180;28;20060;-76
2023/05/01 09:13:25;;;;;;;2.78;1.77;;;;;;;;;;5090999;28;20498;-76
2023/05/01 09:15:51;;;;;;;2.00;1.80;;;;;;;;;;5083639;28;20028;-77
2023/05/01 09:18:18;;;;;;;2.00;1.80;;;;;;;;;;5093499;28;20020;-77
2023/05/01 09:20:44;;;;;;;2.42;1.90;;;;;;;;;;5088393;28;20040;-88
2023/05/01 09:23:11;;;;;;;3.88;1.80;;;;;;;;;;5088814;28;20023;-76
2023/05/01 09:25:37;;;;;;;4.18;1.90;;;;;;;;;;5091560;28;20028;-76
2023/05/01 09:28:06;;;;;;;3.38;2.38;;;;;;;;;;5097041;28;20024;-76
2023/05/01 09:30:34;;;;;;;4.13;2.08;;;;;;;;;;5085253;28;20024;-76
2023/05/01 09:33:07;;;;;;;3.30;1.90;;;;;;;;;;5106782;27;20093;-76
2023/05/01 09:35:48;;;;;;;1.90;1.70;;;;;;;;;;5080805;28;20459;-74
2023/05/01 09:38:17;;;;;;;1.83;1.50;;;;;;;;;;5075329;28;20078;-74
2023/05/01 09:40:43;;;;;;;2.85;1.67;;;;;;;;;;5089033;28;20020;-73
2023/05/01 09:43:09;;;;;;;2.03;1.83;;;;;;;;;;5096285;28;20032;-74
2023/05/01 09:45:36;;;;;;;2.75;1.70;;;;;;;;;;5080916;28;20025;-72
2023/05/01 09:48:12;;;;;;;1.60;1.50;;;;;;;;;;5088880;28;20492;-73
2023/05/01 09:50:41;;;;;;;3.35;1.70;;;;;;;;;;5087364;28;20030;-74
2023/05/01 09:53:07;;;;;;;2.00;1.80;;;;;;;;;;5084494;28;20047;-74
2023/05/01 09:55:34;;;;;;;2.65;1.90;;;;;;;;;;5083331;28;20048;-73
2023/05/01 09:58:00;;;;;;;2.38;1.77;;;;;;;;;;5092749;28;20035;-75
2023/05/01 10:00:26;;;;;;;3.40;1.60;;;;;;;;;;5084203;28;20024;-73
2023/05/01 10:02:53;;;;;;;5.15;1.90;;;;;;;;;;5080733;28;20042;-74
2023/05/01 10:05:19;;;;;;;2.33;1.60;;;;;;;;;;5077240;28;20066;-74
2023/05/01 10:07:59;;;;;;;1.90;1.63;;;;;;;;;;5081556;28;20358;-74
2023/05/01 10:10:25;;;;;;;2.00;1.80;;;;;;;;;;5098064;28;20031;-74
2023/05/01 10:12:52;;;;;;;2.60;1.80;;;;;;;;;;5086668;28;20050;-74
2023/05/01 10:15:19;;;;;;;2.03;1.80;;;;;;;;;;5095687;28;20024;-75
2023/05/01 10:17:45;;;;;;;1.80;1.50;;;;;;;;;;5087243;28;20032;-75
2023/05/01 10:20:12;;;;;;;2.28;1.73;;;;;;;;;;5087071;28;20027;-76
2023/05/01 10:22:41;;;;;;;1.70;1.60;;;;;;;;;;5081918;28;20033;-74
2023/05/01 10:25:10;;;;;;;3.25;1.73;;;;;;;;;;5091739;28;20028;-74
2023/05/01 10:27:37;;;;;;;5.20;1.80;;;;;;;;;;5086223;28;20408;-74
2023/05/01 10:30:04;;;;;;;2.15;1.90;;;;;;;;;;5101627;28;20032;-75
2023/05/01 10:32:31;;;;;;;1.75;1.55;;;;;;;;;;5084726;28;20082;-74
2023/05/01 10:35:00;;;;;;;2.92;1.80;;;;;;;;;;5093367;28;20032;-75
2023/05/01 10:37:38;;;;;;;1.90;1.70;;;;;;;;;;5098389;28;20048;-74
2023/05/01 10:40:36;;;;;;;3.13;1.80;;;;;;;;;;5078157;28;20032;-74
2023/05/01 10:43:17;;;;;;;3.05;1.70;;;;;;;;;;5072357;28;20032;-75
2023/05/01 10:45:47;;;;;;;1.80;1.70;;;;;;;;;;5092565;28;20029;-74
2023/05/01 10:48:32;;;;;;;1.60;1.50;;;;;;;;;;5087610;28;20020;-74
2023/05/01 10:51:36;;;;;;;2.50;1.60;;;;;;;;;;5087558;28;20020;-74
2023/05/01 10:54:12;;;;;;;1.92;1.40;;;;;;;;;;5027178;28;20051;-75
2023/05/01 10:56:38;;;;;;;1.65;1.55;;;;;;;;;;5030471;28;20566;-74
2023/05/01 10:59:05;;;;;;;1.92;1.70;;;;;;;;;;5058370;28;20031;-75
2023/05/01 11:01:35;;;;;;;2.00;1.80;;;;;;;;;;5076866;28;20519;-74
2023/05/01 11:04:09;;;;;;;2.22;2.00;;;;;;;;;;5081848;28;20046;-75
2023/05/01 11:06:36;;;;;;;1.95;1.60;;;;;;;;;;5084941;28;20032;-74
2023/05/01 11:09:22;;;;;;;1.52;1.42;;;;;;;;;;5076717;28;20035;-74
2023/05/01 11:11:49;;;;;;;1.60;1.50;;;;;;;;;;5080947;28;20032;-81
2023/05/01 11:14:15;;;;;;;2.47;1.75;;;;;;;;;;5090524;28;20059;-76
2023/05/01 11:16:41;;;;;;;1.63;1.52;;;;;;;;;;5073187;28;20056;-75
2023/05/01 11:19:23;;;;;;;4.10;1.80;;;;;;;;;;5098518;28;20110;-75
2023/05/01 11:21:49;;;;;;;3.83;1.50;;;;;;;;;;5079987;28;20112;-76
2023/05/01 11:24:19;;;;;;;1.42;1.33;;;;;;;;;;5079483;28;20047;-75
2023/05/01 11:26:46;;;;;;;1.50;1.40;;;;;;;;;;5082856;28;20028;-75
2023/05/01 11:29:12;;;;;;;1.48;1.38;;;;;;;;;;5090235;28;20034;-74
2023/05/01 11:31:39;;;;;;;1.95;1.50;;;;;;;;;;5073660;28;20167;-78
2023/05/01 11:34:08;;;;;;;1.50;1.40;;;;;;;;;;5071408;28;20036;-74
2023/05/01 11:36:50;;;;;;;1.75;1.60;;;;;;;;;;5095654;28;20024;-74
2023/05/01 11:39:19;;;;;;;1.50;1.40;;;;;;;;;;5077331;28;20028;-76
2023/05/01 11:41:46;;;;;;;1.23;1.23;;;;;;;;;;5097691;28;20064;-76
2023/05/01 11:44:15;;;;;;;3.03;2.20;;;;;;;;;;5076717;28;20465;-76
2023/05/01 11:46:41;;;;;;;3.10;1.65;;;;;;;;;;5098620;28;20111;-76
2023/05/01 11:49:08;;;;;;;3.33;2.10;;;;;;;;;;5082384;28;20039;-77
2023/05/01 11:51:34;;;;;;;3.25;2.13;;;;;;;;;;5094262;28;20028;-78
2023/05/01 11:54:02;;;;;;;2.70;1.60;;;;;;;;;;5079197;28;20031;-77
2023/05/01 11:56:29;;;;;;;3.00;1.63;;;;;;;;;;5093092;28;20032;-76
2023/05/01 11:58:56;;;;;;;3.50;1.90;;;;;;;;;;5081080;28;20032;-78
2023/05/01 12:01:33;;;;;;;1.65;1.55;;;;;;;;;;5080106;28;20516;-77
2023/05/01 12:03:59;;;;;;;1.70;1.60;;;;;;;;;;5077748;28;20062;-77
2023/05/01 12:06:47;;;;;;;1.75;1.48;;;;;;;;;;5077455;28;20032;-86
2023/05/01 12:09:23;;;;;;;2.00;1.90;;;;;;;;;;5100014;28;20032;-78
2023/05/01 12:11:51;;;;;;;2.25;1.60;;;;;;;;;;5098039;28;20027;-77
2023/05/01 12:14:18;;;;;;;2.38;1.77;;;;;;;;;;5094627;28;20407;-77
2023/05/01 12:16:45;;;;;;;1.50;1.40;;;;;;;;;;5078710;28;20036;-82
2023/05/01 12:19:12;;;;;;;3.60;1.70;;;;;;;;;;5075396;28;20036;-76
2023/05/01 12:21:39;;;;;;;2.28;1.60;;;;;;;;;;5083254;28;20548;-75
2023/05/01 12:24:13;;;;;;;1.83;1.50;;;;;;;;;;5091967;28;20028;-78
2023/05/01 12:26:40;;;;;;;2.45;1.60;;;;;;;;;;5099030;28;20115;-77
2023/05/01 12:29:07;;;;;;;2.22;1.70;;;;;;;;;;5093990;28;20440;-77
2023/05/01 12:31:34;;;;;;;2.00;1.90;;;;;;;;;;5079837;28;20044;-79
2023/05/01 12:34:04;;;;;;;1.98;1.40;;;;;;;;;;5075383;28;20033;-79
2023/05/01 12:36:34;;;;;;;1.50;1.23;;;;;;;;;;5083057;28;20043;-77
2023/05/01 12:39:05;;;;;;;1.85;1.50;;;;;;;;;;5082159;28;20033;-77
2023/05/01 12:41:45;;;;;;;1.65;1.48;;;;;;;;;;5092601;28;20032;-77
2023/05/01 12:44:17;;;;;;;1.73;1.63;;;;;;;;;;5075797;28;20032;-76
2023/05/01 12:46:46;;;;;;;2.38;1.70;;;;;;;;;;5075790;28;20035;-79
2023/05/01 12:49:18;;;;;;;2.25;1.58;;;;;;;;;;5084087;28;20028;-79
2023/05/01 12:51:48;;;;;;;2.05;1.80;;;;;;;;;;5097685;28;20028;-79
2023/05/01 12:54:21;;;;;;;2.13;1.60;;;;;;;;;;5081717;28;20020;-78
2023/05/01 12:56:47;;;;;;;2.30;1.75;;;;;;;;;;5094797;28;20025;-78
2023/05/01 12:59:21;;;;;;;1.70;1.60;;;;;;;;;;5080108;28;20107;-77
2023/05/01 13:01:47;;;;;;;1.50;1.40;;;;;;;;;;5079079;28;20040;-78
2023/05/01 13:04:20;;;;;;;1.80;1.58;;;;;;;;;;5076797;28;20476;-77
2023/05/01 13:06:46;;;;;;;1.55;1.45;;;;;;;;;;5078590;28;20507;-78
2023/05/01 13:09:14;;;;;;;1.65;1.55;;;;;;;;;;5079699;28;20138;-77
2023/05/01 13:11:41;;;;;;;1.63;1.52;;;;;;;;;;5080044;28;20028;-76
2023/05/01 13:14:08;;;;;;;1.50;1.40;;;;;;;;;;5093431;28;20028;-76
2023/05/01 13:16:34;;;;;;;1.40;1.30;;;;;;;;;;5077369;28;20020;-81
2023/05/01 13:19:00;;;;;;;1.55;1.45;;;;;;;;;;5075859;28;20024;-76
2023/05/01 13:21:27;;;;;;;2.58;1.55;;;;;;;;;;5080638;28;20147;-78
2023/05/01 13:23:57;;;;;;;1.67;1.50;;;;;;;;;;5073980;28;20660;-74
2023/05/01 13:26:27;;;;;;;1.88;1.60;;;;;;;;;;5079995;28;20028;-75
2023/05/01 13:28:54;;;;;;;2.78;1.80;;;;;;;;;;5086594;28;20492;-76
2023/05/01 13:31:20;;;;;;;1.67;1.50;;;;;;;;;;5079674;28;20147;-77
2023/05/01 13:33:48;;;;;;;2.08;1.67;;;;;;;;;;5094599;28;20457;-76
2023/05/01 13:36:15;;;;;;;1.60;1.50;;;;;;;;;;5090664;28;20399;-75
2023/05/01 13:38:44;;;;;;;1.67;1.58;;;;;;;;;;5076444;28;20081;-77
2023/05/01 13:41:20;;;;;;;2.08;1.80;;;;;;;;;;5083424;28;20028;-75
2023/05/01 13:43:49;;;;;;;1.75;1.65;;;;;;;;;;5080853;28;20032;-75
2023/05/01 13:46:17;;;;;;;1.63;1.52;;;;;;;;;;5076651;28;20281;-75
2023/05/01 13:48:43;;;;;;;2.53;1.70;;;;;;;;;;5078533;28;20111;-77
2023/05/01 13:51:10;;;;;;;1.80;1.60;;;;;;;;;;5075775;28;20032;-76
2023/05/01 13:53:38;;;;;;;1.75;1.60;;;;;;;;;;5079360;28;20097;-76
2023/05/01 13:56:05;;;;;;;3.00;1.70;;;;;;;;;;5090092;28;20560;-75
2023/05/01 13:58:32;;;;;;;2.70;1.98;;;;;;;;;;5075942;28;20028;-76
2023/05/01 14:00:58;;;;;;;1.60;1.50;;;;;;;;;;5076612;28;20354;-75
2023/05/01 14:03:24;;;;;;;2.88;1.52;;;;;;;;;;5091013;28;20028;-75
2023/05/01 14:05:50;;;;;;;1.60;1.50;;;;;;;;;;5083154;28;20484;-76
2023/05/01 14:08:20;;;;;;;2.20;2.00;;;;;;;;;;5079537;28;20028;-75
2023/05/01 14:10:47;;;;;;;1.50;1.40;;;;;;;;;;5089146;28;20401;-76
2023/05/01 14:13:17;;;;;;;2.50;1.65;;;;;;;;;;5094670;28;20120;-76
2023/05/01 14:15:43;;;;;;;1.50;1.40;;;;;;;;;;5076299;28;20020;-80
2023/05/01 14:18:11;;;;;;;1.60;1.50;;;;;;;;;;5083114;28;20170;-75
2023/05/01 14:20:38;;;;;;;3.03;1.65;;;;;;;;;;5086146;28;20051;-76
2023/05/01 14:23:05;;;;;;;3.25;1.58;;;;;;;;;;5077455;28;20028;-75
2023/05/01 14:25:33;;;;;;;2.95;1.45;;;;;;;;;;5077216;28;20580;-75
2023/05/01 14:28:00;;;;;;;1.75;1.60;;;;;;;;;;5073752;28;20028;-75
2023/05/01 14:30:32;;;;;;;1.52;1.42;;;;;;;;;;5076930;28;20111;-76
2023/05/01 14:33:01;;;;;;;1.70;1.60;;;;;;;;;;5081729;28;20047;-76
2023/05/01 14:35:27;;;;;;;4.18;1.88;;;;;;;;;;5091301;28;20024;-76
2023/05/01 14:37:54;;;;;;;1.83;1.63;;;;;;;;;;5091530;28;20056;-76
2023/05/01 14:40:25;;;;;;;1.90;1.67;;;;;;;;;;5072956;28;20081;-76
2023/05/01 14:42:52;;;;;;;1.67;1.58;;;;;;;;;;5078776;28;20032;-76
2023/05/01 14:45:18;;;;;;;1.52;1.40;;;;;;;;;;5091723;28;20042;-76
2023/05/01 14:47:46;;;;;;;1.52;1.42;;;;;;;;;;5074020;28;20397;-77